Time;durP1;ratioP1;P1;durP2;ratioP2;P2;SDS_P1;SDS_P2;PMS_P1;PMS_P2;Temp;Humidity;BMP_temperature;BMP_pressure;BME280_temperature;BME280_humidity;BME280_pressure;Samples;Min_cycle;Max_cycle;Signal;HPM_P1;HPM_P2
2021/09/26 00:01:29;;;;;;;17.80;11.57;;;;;;;14.44;100.00;100598.09;5035241;28;20037;-70
2021/09/26 00:03:58;;;;;;;18.30;10.43;;;;;;;14.33;100.00;100602.38;5035893;28;20069;-70
2021/09/26 00:06:26;;;;;;;14.90;9.55;;;;;;;14.20;100.00;100606.03;5035092;28;20052;-70
2021/09/26 00:08:56;;;;;;;14.25;10.50;;;;;;;14.10;100.00;100603.13;5034508;28;20045;-70
2021/09/26 00:11:24;;;;;;;14.30;10.20;;;;;;;14.03;100.00;100599.16;5035227;28;20099;-71
2021/09/26 00:13:53;;;;;;;16.23;10.20;;;;;;;13.93;100.00;100598.94;5035302;28;20100;-70
2021/09/26 00:16:22;;;;;;;14.70;10.35;;;;;;;13.87;100.00;100606.53;5034801;28;20045;-70
2021/09/26 00:18:50;;;;;;;14.52;9.95;;;;;;;13.86;100.00;100599.44;5035559;28;20079;-70
2021/09/26 00:21:19;;;;;;;14.27;9.90;;;;;;;13.90;100.00;100600.97;5035203;28;20046;-70
2021/09/26 00:23:49;;;;;;;16.13;10.32;;;;;;;13.95;100.00;100596.13;5035219;28;20103;-70
2021/09/26 00:26:18;;;;;;;15.48;10.35;;;;;;;13.85;100.00;100606.63;5034847;28;20132;-70
2021/09/26 00:28:47;;;;;;;15.43;10.18;;;;;;;13.77;100.00;100608.13;5035323;28;20111;-70
2021/09/26 00:31:15;;;;;;;17.80;11.13;;;;;;;13.71;100.00;100607.59;5034902;28;20099;-71
2021/09/26 00:33:43;;;;;;;16.38;10.85;;;;;;;13.66;100.00;100601.66;5034973;28;20084;-71
2021/09/26 00:36:11;;;;;;;15.65;10.55;;;;;;;13.64;100.00;100608.94;5034880;28;20042;-71
2021/09/26 00:38:40;;;;;;;15.40;11.27;;;;;;;13.62;100.00;100610.88;5034922;28;20095;-71
2021/09/26 00:41:08;;;;;;;14.60;10.57;;;;;;;13.59;100.00;100611.06;5034682;28;20042;-71
2021/09/26 00:43:38;;;;;;;18.25;11.40;;;;;;;13.59;100.00;100608.38;5034741;28;20037;-71
2021/09/26 00:46:07;;;;;;;16.20;10.65;;;;;;;13.57;100.00;100604.97;5035044;28;20041;-71
2021/09/26 00:48:36;;;;;;;15.85;10.90;;;;;;;13.57;100.00;100613.00;5034883;28;20454;-71
2021/09/26 00:51:09;;;;;;;14.88;10.00;;;;;;;13.59;100.00;100610.22;5034761;28;20052;-71
2021/09/26 00:53:38;;;;;;;22.38;10.68;;;;;;;13.56;100.00;100616.63;5034633;28;20041;-71
2021/09/26 00:56:07;;;;;;;17.10;10.57;;;;;;;13.51;100.00;100608.06;5034446;28;20582;-71
2021/09/26 00:58:37;;;;;;;16.98;10.75;;;;;;;13.49;100.00;100625.19;5034447;28;20068;-71
2021/09/26 01:01:05;;;;;;;15.80;10.25;;;;;;;13.44;100.00;100618.31;5034436;28;20041;-71
2021/09/26 01:03:34;;;;;;;18.40;10.23;;;;;;;13.44;100.00;100617.47;5034589;28;20133;-71
2021/09/26 01:06:12;;;;;;;16.33;10.50;;;;;;;13.48;100.00;100618.97;5034417;28;20046;-71
2021/09/26 01:08:57;;;;;;;16.17;10.65;;;;;;;13.49;100.00;100615.31;5034852;28;20056;-72
2021/09/26 01:11:36;;;;;;;15.85;10.57;;;;;;;13.48;100.00;100621.66;5034072;28;20041;-72
2021/09/26 01:14:17;;;;;;;15.95;10.63;;;;;;;13.43;100.00;100616.59;5034245;28;20038;-72
2021/09/26 01:16:58;;;;;;;17.42;11.25;;;;;;;13.37;100.00;100626.84;5034202;28;20041;-72
2021/09/26 01:19:40;;;;;;;17.85;10.18;;;;;;;13.35;100.00;100623.44;5033830;28;20049;-72
2021/09/26 01:22:15;;;;;;;15.27;11.00;;;;;;;13.34;100.00;100627.06;5034016;28;20099;-71
2021/09/26 01:25:13;;;;;;;18.98;11.27;;;;;;;13.40;100.00;100632.00;5034014;28;20135;-71
2021/09/26 01:28:03;;;;;;;19.45;12.10;;;;;;;13.38;100.00;100634.78;5034155;28;20475;-71
2021/09/26 01:30:41;;;;;;;17.60;10.95;;;;;;;13.43;100.00;100632.69;5033669;28;20053;-71
2021/09/26 01:33:17;;;;;;;16.35;10.73;;;;;;;13.45;100.00;100629.91;5033707;28;20041;-74
2021/09/26 01:35:55;;;;;;;16.52;10.60;;;;;;;13.64;100.00;100630.41;5034065;28;20496;-71
2021/09/26 01:38:31;;;;;;;16.38;11.60;;;;;;;13.77;100.00;100621.53;5033756;28;20064;-71
2021/09/26 01:41:03;;;;;;;16.27;10.93;;;;;;;13.80;100.00;100629.34;5033812;28;20052;-71
2021/09/26 01:43:38;;;;;;;15.13;11.10;;;;;;;13.67;100.00;100627.50;5033365;28;20053;-71
2021/09/26 01:46:12;;;;;;;17.55;11.55;;;;;;;13.62;100.00;100632.31;5033836;28;20437;-71
2021/09/26 01:48:54;;;;;;;15.95;10.50;;;;;;;13.49;100.00;100631.41;5033960;28;20080;-71
2021/09/26 01:51:24;;;;;;;21.75;11.82;;;;;;;13.45;100.00;100629.91;5033229;28;20128;-71
2021/09/26 01:53:55;;;;;;;18.00;11.40;;;;;;;13.45;100.00;100629.91;5033233;28;20084;-71
2021/09/26 01:56:23;;;;;;;15.65;11.02;;;;;;;13.40;100.00;100632.00;5033097;28;20045;-71
2021/09/26 01:58:53;;;;;;;17.88;11.02;;;;;;;13.37;100.00;100632.22;5033556;28;20042;-72
2021/09/26 02:01:23;;;;;;;16.35;10.98;;;;;;;13.54;100.00;100634.66;5033193;28;20449;-73
2021/09/26 02:03:54;;;;;;;16.20;10.77;;;;;;;13.42;100.00;100638.16;5033105;28;20403;-72
2021/09/26 02:06:24;;;;;;;18.65;11.50;;;;;;;13.22;100.00;100634.09;5033112;28;20498;-73
2021/09/26 02:08:55;;;;;;;16.88;11.20;;;;;;;13.13;100.00;100637.34;5033325;28;20042;-72
2021/09/26 02:11:23;;;;;;;15.32;11.52;;;;;;;13.11;100.00;100631.19;5032980;28;20045;-71
2021/09/26 02:13:54;;;;;;;16.45;10.98;;;;;;;13.13;100.00;100624.81;5033010;28;20479;-71
2021/09/26 02:16:25;;;;;;;14.90;10.80;;;;;;;13.07;100.00;100627.88;5033029;28;20133;-71
2021/09/26 02:18:55;;;;;;;17.90;11.35;;;;;;;13.16;100.00;100624.59;5031894;28;20049;-70
2021/09/26 02:21:25;;;;;;;18.92;12.32;;;;;;;13.16;100.00;100629.94;5031555;28;20049;-71
2021/09/26 02:23:54;;;;;;;17.23;12.05;;;;;;;13.22;100.00;100622.50;5033193;28;20554;-70
2021/09/26 02:26:23;;;;;;;17.50;11.90;;;;;;;13.21;100.00;100626.13;5032875;28;20041;-70
2021/09/26 02:28:52;;;;;;;17.58;13.13;;;;;;;13.17;100.00;100625.44;5033055;28;20046;-70
2021/09/26 02:31:23;;;;;;;19.45;13.18;;;;;;;13.07;100.00;100629.69;5032706;28;20050;-70
2021/09/26 02:33:51;;;;;;;19.30;14.48;;;;;;;12.97;100.00;100621.38;5032570;28;20486;-70
2021/09/26 02:36:21;;;;;;;18.63;13.25;;;;;;;12.88;100.00;100624.66;5032984;28;20056;-70
2021/09/26 02:38:49;;;;;;;18.15;13.10;;;;;;;12.84;100.00;100633.84;5032998;28;20041;-70
2021/09/26 02:41:38;;;;;;;20.70;13.00;;;;;;;12.72;100.00;100635.47;5032728;28;20042;-71
2021/09/26 02:44:13;;;;;;;21.27;13.90;;;;;;;12.66;100.00;100637.69;5032855;28;20048;-70
2021/09/26 02:46:47;;;;;;;20.05;13.98;;;;;;;12.65;100.00;100634.16;5032750;28;20052;-70
2021/09/26 02:49:16;;;;;;;22.20;13.30;;;;;;;12.64;100.00;100636.91;5033132;28;20045;-70
2021/09/26 02:51:44;;;;;;;19.10;15.13;;;;;;;12.69;100.00;100641.00;5032819;28;20068;-70
2021/09/26 02:54:13;;;;;;;18.38;13.63;;;;;;;12.69;100.00;100632.97;5033163;28;20045;-70
2021/09/26 02:56:42;;;;;;;18.65;13.75;;;;;;;12.75;100.00;100631.75;5032344;28;20055;-71
2021/09/26 02:59:11;;;;;;;19.27;13.77;;;;;;;12.66;100.00;100641.22;5032907;28;20128;-71
2021/09/26 03:01:50;;;;;;;19.90;13.73;;;;;;;12.66;100.00;100635.88;5032301;28;20474;-69
2021/09/26 03:04:19;;;;;;;19.55;13.68;;;;;;;12.59;100.00;100647.91;5032408;28;20045;-72
2021/09/26 03:06:48;;;;;;;19.02;13.40;;;;;;;12.70;100.00;100649.91;5032619;28;20046;-69
2021/09/26 03:09:16;;;;;;;20.17;13.98;;;;;;;12.67;100.00;100650.09;5032563;28;20091;-70
2021/09/26 03:11:44;;;;;;;19.70;14.73;;;;;;;12.67;100.00;100642.06;5032819;28;20073;-71
2021/09/26 03:14:13;;;;;;;17.52;12.63;;;;;;;12.75;100.00;100656.69;5032716;28;20121;-69
2021/09/26 03:16:41;;;;;;;18.23;12.55;;;;;;;12.70;100.00;100652.56;5034806;28;20467;-70
2021/09/26 03:19:11;;;;;;;18.23;13.15;;;;;;;12.65;100.00;100654.69;5036331;28;20561;-70
2021/09/26 03:21:40;;;;;;;20.02;13.10;;;;;;;12.40;100.00;100661.56;5035899;28;20042;-70
2021/09/26 03:24:08;;;;;;;20.73;13.40;;;;;;;12.43;100.00;100664.03;5036445;28;20048;-70
2021/09/26 03:26:36;;;;;;;23.58;14.00;;;;;;;12.45;100.00;100664.81;5036281;28;20044;-71
2021/09/26 03:29:05;;;;;;;18.55;12.68;;;;;;;12.59;100.00;100667.50;5036483;28;20075;-71
2021/09/26 03:31:35;;;;;;;17.63;12.13;;;;;;;12.57;100.00;100665.88;5036089;28;20136;-71
2021/09/26 03:34:03;;;;;;;18.77;12.57;;;;;;;12.50;100.00;100668.06;5036369;28;20045;-71
2021/09/26 03:36:33;;;;;;;19.30;12.95;;;;;;;12.43;100.00;100666.69;5036305;28;20379;-71
2021/09/26 03:39:01;;;;;;;19.80;12.85;;;;;;;12.58;100.00;100665.78;5036366;28;20128;-71
2021/09/26 03:41:30;;;;;;;19.15;13.05;;;;;;;12.47;100.00;100665.56;5035834;28;20068;-71
2021/09/26 03:43:58;;;;;;;20.00;13.65;;;;;;;12.38;100.00;100670.63;5035991;28;20051;-71
2021/09/26 03:46:26;;;;;;;18.38;12.75;;;;;;;12.45;100.00;100663.94;5035864;28;20033;-73
2021/09/26 03:48:54;;;;;;;21.83;12.43;;;;;;;12.50;100.00;100660.03;5035908;28;20096;-73
2021/09/26 03:51:22;;;;;;;17.13;12.80;;;;;;;12.42;100.00;100664.13;5035435;28;20466;-74
2021/09/26 03:53:53;;;;;;;19.05;12.38;;;;;;;12.58;100.00;100656.88;5036117;28;20103;-73
2021/09/26 03:56:21;;;;;;;16.73;11.98;;;;;;;12.55;100.00;100652.59;5035410;28;20052;-78
2021/09/26 03:58:50;;;;;;;18.27;12.00;;;;;;;12.50;100.00;100653.81;5035872;28;20406;-73
2021/09/26 04:01:18;;;;;;;19.50;12.80;;;;;;;12.48;100.00;100656.59;5035744;28;20076;-73
2021/09/26 04:03:46;;;;;;;16.73;11.95;;;;;;;12.37;100.00;100653.72;5035688;28;20471;-71
2021/09/26 04:06:15;;;;;;;19.67;12.50;;;;;;;12.34;100.00;100648.53;5035307;28;20128;-71
2021/09/26 04:08:43;;;;;;;18.67;12.65;;;;;;;12.29;100.00;100645.31;5035382;28;20445;-72
2021/09/26 04:11:13;;;;;;;17.80;12.50;;;;;;;12.25;100.00;100654.44;5035636;28;20087;-72
2021/09/26 04:13:41;;;;;;;21.00;13.18;;;;;;;12.28;100.00;100654.28;5034988;28;20393;-73
2021/09/26 04:16:09;;;;;;;18.98;12.43;;;;;;;12.19;100.00;100653.03;5035466;28;20096;-72
2021/09/26 04:18:38;;;;;;;18.63;12.75;;;;;;;12.17;100.00;100651.41;5034919;28;20045;-72
2021/09/26 04:21:06;;;;;;;19.40;12.32;;;;;;;12.13;100.00;100655.19;5035291;28;20042;-70
2021/09/26 04:23:35;;;;;;;18.65;12.73;;;;;;;12.10;100.00;100652.72;5034656;28;20498;-71
2021/09/26 04:26:06;;;;;;;19.38;12.70;;;;;;;11.97;100.00;100656.13;5035091;28;20044;-71
2021/09/26 04:28:36;;;;;;;19.65;12.20;;;;;;;11.93;100.00;100651.03;5034741;28;20046;-70
2021/09/26 04:31:05;;;;;;;18.50;13.25;;;;;;;11.97;100.00;100648.13;5035410;28;20406;-72
2021/09/26 04:33:34;;;;;;;20.77;12.80;;;;;;;11.99;100.00;100650.69;5034599;28;20049;-72
2021/09/26 04:36:03;;;;;;;17.13;11.98;;;;;;;11.96;100.00;100651.72;5035439;28;20056;-74
2021/09/26 04:38:32;;;;;;;20.83;12.85;;;;;;;11.82;100.00;100649.00;5034715;28;20056;-75
2021/09/26 04:41:02;;;;;;;16.95;12.30;;;;;;;11.91;100.00;100659.16;5034950;28;20123;-75
2021/09/26 04:43:30;;;;;;;20.85;13.38;;;;;;;12.08;100.00;100658.16;5035003;28;20052;-75
2021/09/26 04:46:00;;;;;;;20.40;13.30;;;;;;;12.04;100.00;100653.94;5035226;28;20042;-74
2021/09/26 04:48:29;;;;;;;18.70;12.73;;;;;;;12.10;100.00;100663.41;5035017;28;20475;-73
2021/09/26 04:50:57;;;;;;;17.88;11.75;;;;;;;12.07;100.00;100669.81;5034805;28;20041;-73
2021/09/26 04:53:25;;;;;;;17.48;12.82;;;;;;;11.93;100.00;100662.59;5034881;28;20402;-75
2021/09/26 04:55:54;;;;;;;19.88;12.82;;;;;;;11.94;100.00;100660.78;5034525;28;20069;-74
2021/09/26 04:58:22;;;;;;;18.42;12.70;;;;;;;12.06;100.00;100661.84;5034546;28;20434;-75
2021/09/26 05:00:50;;;;;;;18.50;12.73;;;;;;;11.91;100.00;100658.28;5034635;28;20505;-72
2021/09/26 05:03:20;;;;;;;19.60;13.57;;;;;;;11.97;100.00;100661.47;5034647;28;20046;-71
2021/09/26 05:05:48;;;;;;;17.58;12.32;;;;;;;12.06;100.00;100664.53;5034082;28;20065;-71
2021/09/26 05:08:17;;;;;;;17.80;12.75;;;;;;;11.93;100.00;100657.25;5034501;28;20044;-70
2021/09/26 05:10:45;;;;;;;18.65;12.05;;;;;;;11.97;100.00;100669.50;5034183;28;20792;-71
2021/09/26 05:13:13;;;;;;;20.88;12.80;;;;;;;12.02;100.00;100672.75;5034237;28;20049;-70
2021/09/26 05:15:44;;;;;;;18.08;13.05;;;;;;;12.09;100.00;100673.25;5034018;28;20077;-70
2021/09/26 05:18:13;;;;;;;16.33;12.95;;;;;;;12.03;100.00;100666.44;5034204;28;20041;-70
2021/09/26 05:20:43;;;;;;;20.08;12.98;;;;;;;11.94;100.00;100675.00;5033664;28;20475;-71
2021/09/26 05:23:11;;;;;;;18.60;12.70;;;;;;;12.10;100.00;100671.44;5033921;28;20049;-71
2021/09/26 05:25:40;;;;;;;17.40;12.48;;;;;;;12.22;100.00;100674.22;5033620;28;20053;-71
2021/09/26 05:28:08;;;;;;;20.45;12.98;;;;;;;12.35;100.00;100674.34;5034183;28;20052;-70
2021/09/26 05:30:36;;;;;;;19.27;12.45;;;;;;;12.34;100.00;100672.63;5033678;28;20042;-71
2021/09/26 05:33:05;;;;;;;18.80;12.48;;;;;;;12.32;100.00;100674.53;5033700;28;20047;-71
2021/09/26 05:35:33;;;;;;;17.67;12.25;;;;;;;12.40;100.00;100671.38;5033926;28;20049;-72
2021/09/26 05:38:03;;;;;;;17.48;11.93;;;;;;;12.45;100.00;100664.81;5035917;28;20040;-72
2021/09/26 05:40:32;;;;;;;17.38;12.10;;;;;;;12.56;100.00;100673.03;5040854;28;20064;-72
2021/09/26 05:43:00;;;;;;;16.42;12.82;;;;;;;12.46;100.00;100668.34;5042073;28;20045;-72
2021/09/26 05:45:28;;;;;;;19.33;12.93;;;;;;;12.57;100.00;100669.41;5033458;28;20046;-71
2021/09/26 05:47:57;;;;;;;18.42;11.95;;;;;;;12.87;100.00;100665.78;5033662;28;20084;-72
2021/09/26 05:50:25;;;;;;;18.00;12.85;;;;;;;12.98;100.00;100673.97;5051373;28;20102;-73
2021/09/26 05:52:53;;;;;;;16.05;11.55;;;;;;;12.97;100.00;100687.47;5053154;28;20128;-73
2021/09/26 05:55:23;;;;;;;16.60;11.65;;;;;;;13.05;100.00;100677.13;5053379;28;20087;-71
2021/09/26 05:57:51;;;;;;;18.20;12.30;;;;;;;13.18;100.00;100689.63;5052986;28;20078;-71
2021/09/26 06:00:24;;;;;;;21.60;12.95;;;;;;;13.35;100.00;100677.00;5068542;28;20049;-71
2021/09/26 06:02:52;;;;;;;17.30;12.70;;;;;;;13.23;100.00;100678.66;5053154;28;20516;-73
2021/09/26 06:05:21;;;;;;;19.85;12.93;;;;;;;13.31;100.00;100672.78;5053160;28;20114;-72
2021/09/26 06:07:49;;;;;;;21.15;12.75;;;;;;;13.37;100.00;100680.44;5052982;28;20087;-71
2021/09/26 06:10:18;;;;;;;17.60;12.20;;;;;;;13.59;100.00;100683.44;5053069;28;20095;-73
2021/09/26 06:12:48;;;;;;;17.50;12.68;;;;;;;13.66;100.00;100676.72;5052874;28;20049;-73
2021/09/26 06:15:16;;;;;;;18.55;13.25;;;;;;;13.67;100.00;100674.88;5052312;28;20148;-73
2021/09/26 06:17:44;;;;;;;21.73;13.30;;;;;;;13.85;100.00;100673.66;5052949;28;20430;-72
2021/09/26 06:20:13;;;;;;;17.13;12.55;;;;;;;13.84;100.00;100692.53;5053180;28;20048;-71
2021/09/26 06:22:42;;;;;;;20.73;13.15;;;;;;;13.98;100.00;100695.16;5052639;28;20102;-69
2021/09/26 06:25:11;;;;;;;22.50;12.48;;;;;;;14.00;100.00;100693.25;5052920;28;20045;-71
2021/09/26 06:27:39;;;;;;;21.33;13.93;;;;;;;14.11;100.00;100682.66;5052789;28;20048;-74
2021/09/26 06:30:12;;;;;;;18.58;13.07;;;;;;;14.13;100.00;100675.34;5053108;28;20041;-70
2021/09/26 06:32:40;;;;;;;20.30;13.45;;;;;;;14.18;100.00;100689.28;5052817;28;20044;-72
2021/09/26 06:35:10;;;;;;;20.67;14.23;;;;;;;14.25;100.00;100687.06;5053245;28;20049;-72
2021/09/26 06:37:40;;;;;;;17.80;12.80;;;;;;;14.40;100.00;100677.97;5052321;28;20037;-73
2021/09/26 06:40:10;;;;;;;19.00;13.45;;;;;;;14.52;100.00;100693.25;5052682;28;20051;-70
2021/09/26 06:42:39;;;;;;;20.60;12.98;;;;;;;14.64;100.00;100693.34;5052651;28;20037;-70
2021/09/26 06:45:10;;;;;;;19.15;12.45;;;;;;;14.81;100.00;100685.81;5052611;28;20044;-71
2021/09/26 06:47:39;;;;;;;18.75;13.15;;;;;;;14.79;100.00;100700.34;5052493;28;20052;-70
2021/09/26 06:50:09;;;;;;;17.23;12.85;;;;;;;14.91;100.00;100698.59;5054269;28;20099;-71
2021/09/26 06:52:38;;;;;;;17.90;12.15;;;;;;;14.96;100.00;100697.31;5057369;28;20102;-71
2021/09/26 06:55:07;;;;;;;20.15;12.40;;;;;;;15.07;100.00;100699.22;5056775;28;20037;-71
2021/09/26 06:57:36;;;;;;;20.00;12.35;;;;;;;15.27;99.97;100700.47;5056812;28;20073;-71
2021/09/26 07:00:05;;;;;;;16.85;12.65;;;;;;;15.20;100.00;100700.06;5056513;28;20045;-71
2021/09/26 07:02:34;;;;;;;17.35;13.10;;;;;;;15.27;100.00;100695.97;5058566;28;20041;-72
2021/09/26 07:05:07;;;;;;;18.50;11.85;;;;;;;15.32;100.00;100687.56;5056391;28;20080;-71
2021/09/26 07:07:35;;;;;;;16.50;11.57;;;;;;;15.32;100.00;100696.47;5056685;28;20127;-71
2021/09/26 07:10:05;;;;;;;16.70;11.85;;;;;;;15.48;100.00;100698.06;5040343;28;20056;-75
2021/09/26 07:12:34;;;;;;;16.63;12.15;;;;;;;15.51;100.00;100705.88;5036473;28;20046;-79
2021/09/26 07:15:03;;;;;;;16.35;11.95;;;;;;;15.64;99.67;100704.91;5036111;28;20053;-79
2021/09/26 07:17:32;;;;;;;18.15;11.88;;;;;;;15.68;98.78;100708.22;5035831;28;20091;-78
2021/09/26 07:20:02;;;;;;;16.55;11.65;;;;;;;15.69;98.73;100707.25;5036319;28;20067;-80
2021/09/26 07:22:32;;;;;;;17.55;12.38;;;;;;;15.87;98.03;100700.50;5035625;28;20095;-79
2021/09/26 07:25:01;;;;;;;16.67;10.68;;;;;;;15.96;98.17;100710.56;5035769;28;20156;-79
2021/09/26 07:27:30;;;;;;;15.25;11.25;;;;;;;16.28;96.23;100704.56;5035557;28;20041;-76
2021/09/26 07:29:59;;;;;;;16.50;11.73;;;;;;;16.26;95.54;100712.75;5035917;28;20042;-76
2021/09/26 07:32:29;;;;;;;16.17;11.85;;;;;;;16.36;95.64;100707.53;5035586;28;20461;-79
2021/09/26 07:34:58;;;;;;;16.02;11.40;;;;;;;16.36;95.30;100718.28;5034328;28;20092;-78
2021/09/26 07:37:29;;;;;;;17.17;11.93;;;;;;;16.23;96.17;100717.53;5035496;28;20053;-79
2021/09/26 07:39:57;;;;;;;18.13;11.55;;;;;;;16.47;95.50;100718.31;5034566;28;20096;-79
2021/09/26 07:42:25;;;;;;;16.77;11.90;;;;;;;16.58;95.00;100715.63;5035189;28;20049;-76
2021/09/26 07:44:58;;;;;;;17.65;11.80;;;;;;;16.59;94.83;100714.66;5035601;28;20049;-78
2021/09/26 07:47:26;;;;;;;17.50;12.30;;;;;;;16.65;94.22;100720.56;5035536;28;20034;-75
2021/09/26 07:49:55;;;;;;;17.30;12.25;;;;;;;16.60;94.03;100711.03;5035579;28;20495;-75
2021/09/26 07:52:24;;;;;;;17.40;12.88;;;;;;;16.76;94.29;100715.22;5035177;28;20477;-75
2021/09/26 07:54:56;;;;;;;18.50;12.02;;;;;;;16.84;93.66;100718.19;5035259;28;20048;-72
2021/09/26 07:57:25;;;;;;;15.18;11.38;;;;;;;17.00;92.69;100724.06;5035452;28;20042;-73
2021/09/26 07:59:55;;;;;;;17.25;12.23;;;;;;;16.92;93.18;100721.13;5036111;28;20045;-76
2021/09/26 08:02:25;;;;;;;17.42;12.73;;;;;;;17.14;92.85;100720.25;5033259;28;20053;-76
2021/09/26 08:04:57;;;;;;;19.02;12.15;;;;;;;17.33;91.98;100716.94;5035094;28;20414;-75
2021/09/26 08:07:32;;;;;;;16.95;12.27;;;;;;;17.34;91.42;100715.97;5035317;28;20052;-79
2021/09/26 08:10:07;;;;;;;17.63;12.88;;;;;;;17.35;91.50;100720.38;5035091;28;20457;-77
2021/09/26 08:12:36;;;;;;;15.65;12.20;;;;;;;17.42;91.46;100718.91;5035105;28;20402;-77
2021/09/26 08:15:07;;;;;;;18.80;12.10;;;;;;;17.54;91.34;100728.66;5035156;28;20041;-71
2021/09/26 08:17:37;;;;;;;19.20;12.27;;;;;;;17.62;91.99;100730.75;5034711;28;20041;-72
2021/09/26 08:20:07;;;;;;;19.02;12.35;;;;;;;17.72;91.02;100727.19;5035007;28;20045;-72
2021/09/26 08:22:37;;;;;;;17.38;12.20;;;;;;;17.88;89.90;100725.94;5034369;28;20119;-75
2021/09/26 08:25:08;;;;;;;16.83;11.85;;;;;;;17.92;89.92;100728.25;5034964;28;20379;-75
2021/09/26 08:27:37;;;;;;;19.58;11.82;;;;;;;17.98;90.57;100722.34;5034799;28;20446;-72
2021/09/26 08:30:08;;;;;;;15.80;11.50;;;;;;;18.10;89.45;100720.44;5034755;28;20049;-72
2021/09/26 08:32:37;;;;;;;19.55;12.20;;;;;;;18.19;89.16;100708.88;5034537;28;20099;-74
2021/09/26 08:35:07;;;;;;;16.23;11.43;;;;;;;18.42;88.03;100709.59;5034578;28;20394;-74
2021/09/26 08:37:38;;;;;;;15.77;11.93;;;;;;;18.25;88.86;100713.78;5034709;28;20224;-74
2021/09/26 08:40:12;;;;;;;16.38;11.68;;;;;;;18.47;87.67;100712.78;5034464;28;20041;-74
2021/09/26 08:42:42;;;;;;;17.20;11.65;;;;;;;18.69;86.90;100706.41;5034564;28;20056;-74
2021/09/26 08:45:14;;;;;;;15.82;11.23;;;;;;;18.68;87.42;100704.69;5034178;28;20545;-73
2021/09/26 08:47:44;;;;;;;15.60;11.38;;;;;;;18.66;87.20;100705.81;5034265;28;20060;-75
2021/09/26 08:50:15;;;;;;;15.55;11.25;;;;;;;18.81;87.00;100705.31;5034244;28;20065;-73
2021/09/26 08:52:46;;;;;;;15.43;9.97;;;;;;;19.02;86.04;100701.75;5033950;28;20075;-72
2021/09/26 08:55:17;;;;;;;15.23;10.02;;;;;;;18.95;86.43;100705.97;5034266;28;20695;-70
2021/09/26 08:57:47;;;;;;;18.00;11.02;;;;;;;18.90;86.61;100700.09;5034138;28;20445;-71
2021/09/26 09:00:17;;;;;;;14.77;10.15;;;;;;;19.06;86.22;100697.78;5034449;28;20053;-69
2021/09/26 09:02:46;;;;;;;15.07;9.93;;;;;;;19.11;85.84;100690.97;5033877;28;20463;-71
2021/09/26 09:05:30;;;;;;;13.52;9.63;;;;;;;19.34;84.62;100688.91;5033668;28;20442;-69
2021/09/26 09:08:07;;;;;;;12.70;9.15;;;;;;;19.67;83.44;100678.75;5034099;28;20068;-68
2021/09/26 09:10:46;;;;;;;14.77;9.02;;;;;;;19.76;82.62;100682.47;5033613;28;20387;-68
2021/09/26 09:13:18;;;;;;;14.80;9.68;;;;;;;19.72;82.97;100684.59;5032876;28;20095;-68
2021/09/26 09:15:54;;;;;;;13.18;9.43;;;;;;;19.73;82.89;100689.03;5033669;28;20045;-69
2021/09/26 09:18:23;;;;;;;14.20;8.57;;;;;;;19.78;82.98;100678.63;5033967;28;20496;-68
2021/09/26 09:20:53;;;;;;;10.85;8.07;;;;;;;20.00;81.26;100677.50;5033522;28;20037;-68
2021/09/26 09:23:23;;;;;;;12.48;7.72;;;;;;;20.21;79.68;100680.06;5033601;28;20042;-68
2021/09/26 09:25:55;;;;;;;11.38;7.40;;;;;;;20.20;79.51;100678.34;5033571;28;20136;-68
2021/09/26 09:28:26;;;;;;;11.00;7.57;;;;;;;20.16;79.90;100679.63;5033827;28;20054;-68
2021/09/26 09:30:56;;;;;;;11.55;7.40;;;;;;;20.21;79.91;100685.47;5033565;28;20049;-69
2021/09/26 09:33:35;;;;;;;9.75;7.20;;;;;;;20.24;79.46;100679.75;5033325;28;20041;-68
2021/09/26 09:36:04;;;;;;;9.13;7.10;;;;;;;20.24;79.34;100679.75;5033633;28;20135;-68
2021/09/26 09:38:37;;;;;;;10.25;7.13;;;;;;;20.35;78.06;100676.88;5032158;28;20566;-70
2021/09/26 09:41:10;;;;;;;10.38;7.18;;;;;;;20.37;77.99;100677.63;5033234;28;20046;-68
2021/09/26 09:43:47;;;;;;;10.00;6.80;;;;;;;20.50;77.82;100669.22;5033117;28;20049;-68
2021/09/26 09:46:31;;;;;;;11.30;6.15;;;;;;;20.64;77.44;100670.59;5033206;28;20042;-68
2021/09/26 09:49:15;;;;;;;9.95;7.40;;;;;;;20.91;76.60;100653.53;5033445;28;20061;-68
2021/09/26 09:51:49;;;;;;;;;;;;;;;20.99;76.15;100661.78;5033628;28;20037;-68
2021/09/26 09:54:27;;;;;;;10.07;6.70;;;;;;;20.94;76.67;100655.91;5032810;28;19943;-70
2021/09/26 09:56:58;;;;;;;12.30;7.65;;;;;;;21.11;74.21;100657.84;5033169;28;20041;-71
2021/09/26 09:59:35;;;;;;;9.73;6.75;;;;;;;21.15;74.25;100653.84;5033389;28;20041;-70
2021/09/26 10:02:04;;;;;;;9.80;6.60;;;;;;;21.14;74.67;100652.16;5032867;28;20516;-73
2021/09/26 10:04:37;;;;;;;10.55;6.55;;;;;;;21.26;72.97;100650.97;5032769;28;20044;-70
2021/09/26 10:07:18;;;;;;;12.48;6.60;;;;;;;21.40;74.13;100646.88;5032984;28;20471;-72
2021/09/26 10:09:50;;;;;;;10.65;7.32;;;;;;;21.40;72.71;100646.88;5032958;28;20151;-71
2021/09/26 10:12:24;;;;;;;8.15;6.30;;;;;;;21.33;72.88;100643.06;5032662;28;20445;-71
2021/09/26 10:14:56;;;;;;;10.68;6.88;;;;;;;21.41;72.88;100638.56;5032853;28;20368;-71
2021/09/26 10:17:25;;;;;;;7.53;5.85;;;;;;;21.70;70.28;100640.22;5032754;28;20045;-71
2021/09/26 10:19:54;;;;;;;8.90;6.25;;;;;;;21.87;70.30;100638.53;5032431;28;20073;-72
2021/09/26 10:22:23;;;;;;;8.23;5.80;;;;;;;21.94;68.90;100634.19;5032593;28;20048;-71
2021/09/26 10:24:53;;;;;;;9.85;5.95;;;;;;;21.96;67.58;100637.59;5032454;28;20053;-69
2021/09/26 10:27:27;;;;;;;7.82;6.03;;;;;;;21.84;68.06;100633.41;5032377;28;20057;-73
2021/09/26 10:30:00;;;;;;;8.63;6.35;;;;;;;21.73;69.44;100636.38;5032770;28;20049;-71
2021/09/26 10:32:29;;;;;;;7.38;5.53;;;;;;;21.89;68.55;100631.06;5032333;28;20095;-70
2021/09/26 10:35:00;;;;;;;7.85;5.88;;;;;;;22.10;67.06;100628.94;5032406;28;20107;-70
2021/09/26 10:37:29;;;;;;;7.78;5.53;;;;;;;22.20;66.56;100632.41;5032329;28;20045;-71
2021/09/26 10:39:58;;;;;;;8.43;6.20;;;;;;;22.37;65.90;100630.63;5032488;28;20053;-71
2021/09/26 10:42:35;;;;;;;9.45;5.78;;;;;;;22.28;65.36;100627.00;5032161;28;20054;-72
2021/09/26 10:45:06;;;;;;;10.38;6.50;;;;;;;22.18;66.32;100631.69;5031294;28;20061;-70
2021/09/26 10:47:37;;;;;;;7.90;5.72;;;;;;;22.22;66.27;100622.22;5032348;28;20051;-69
2021/09/26 10:50:12;;;;;;;9.82;5.93;;;;;;;22.36;65.62;100620.78;5032616;28;20175;-69
2021/09/26 10:52:43;;;;;;;9.13;5.85;;;;;;;22.48;64.59;100630.38;5032148;28;20057;-69
2021/09/26 10:55:32;;;;;;;7.97;5.65;;;;;;;22.39;64.99;100623.22;5032557;28;20398;-69
2021/09/26 10:58:21;;;;;;;9.05;5.95;;;;;;;22.51;65.52;100631.94;5046275;28;20045;-69
2021/09/26 11:01:01;;;;;;;9.43;5.80;;;;;;;22.57;65.38;100620.41;5048397;28;20041;-69
2021/09/26 11:03:41;;;;;;;8.77;5.88;;;;;;;22.75;65.10;100618.47;5041032;28;20045;-69
2021/09/26 11:06:29;;;;;;;9.00;6.25;;;;;;;22.81;64.02;100611.53;5048048;28;20068;-68
2021/09/26 11:08:59;;;;;;;10.45;5.70;;;;;;;22.92;63.97;100614.00;5047777;28;20061;-74
2021/09/26 11:11:38;;;;;;;7.60;5.38;;;;;;;22.84;64.83;100614.81;5031813;28;20053;-73
2021/09/26 11:14:09;;;;;;;8.27;5.90;;;;;;;22.72;65.01;100613.38;5032356;28;20061;-74
2021/09/26 11:16:56;;;;;;;8.43;6.00;;;;;;;22.84;64.28;100611.25;5030947;28;20479;-74
2021/09/26 11:19:26;;;;;;;7.93;5.60;;;;;;;22.79;64.21;100609.00;5032384;28;20471;-74
2021/09/26 11:22:00;;;;;;;7.65;5.43;;;;;;;22.87;64.42;100610.91;5031885;28;20498;-74
2021/09/26 11:24:36;;;;;;;8.93;5.22;;;;;;;22.81;64.47;100600.66;5032230;28;20049;-74